Aviation Digital Data Service (ADDS)

Output produced by METARs form (2307 UTC 23 July 2016)
found at http://aviationweather.gov/adds/metars/
 
KROC 232108Z 2321/2418 34014G20KT P6SM FEW080 
     FM240000 31009KT P6SM SKC 
     FM240200 VRB03KT P6SM SKC 
     FM241600 VRB03KT P6SM FEW050 FEW250